Latest Weather Observations for Charlton

IDV60801

Issued at 11:31 pm EST Tuesday 26 May 2015 (issued every 30 minutes, with the page automatically refreshed every 10 minutes)

About weather observations | Map of weather stations | Latest weather observations for VIC | Other Formats
Station Details ID: 080128 Name: CHARLTON Lat: -36.28 Lon: 143.33 Height: 131.7 m
Data from the previous 72 hours. | See also: Recent months at Charlton
Date/Time
EST
Temp
°C
App
Temp
°C
Dew
Point
Rel
Hum
%
Delta-T
°C
Wind Press
QNH
hPa
Press
MSL
hPa
Rain
since 9 am
mm
Dir
 
Spd
km/h
Gust
km/h
Spd
kts
Gust
kts
26/11:30pm 11.9 8.8 7.2 73 2.3 NE 13 19 7 10 1023.2 1023.3 0.0
26/11:00pm 12.0 8.9 7.1 72 2.4 NE 13 20 7 11 1023.5 1023.6 0.0
26/10:30pm 12.2 9.1 7.1 71 2.5 NE 13 20 7 11 1023.6 1023.7 0.0
26/10:00pm 12.5 9.3 7.0 69 2.7 NE 13 20 7 11 1023.9 1024.0 0.0
26/09:30pm 12.2 9.4 6.9 70 2.6 NE 11 17 6 9 1023.9 1024.0 0.0
26/09:00pm 12.2 9.4 7.1 71 2.5 NE 11 17 6 9 1024.1 1024.2 0.0
26/08:30pm 12.5 9.4 7.4 71 2.5 NE 13 20 7 11 1024.1 1024.2 0.0
26/08:00pm 12.9 9.9 7.6 70 2.6 ENE 13 20 7 11 1024.0 1024.1 0.0
26/07:30pm 13.2 10.1 7.4 68 2.8 ENE 13 17 7 9 1024.1 1024.2 0.0
26/07:00pm 13.1 10.3 7.1 67 2.9 ENE 11 17 6 9 1024.0 1024.1 0.0
26/06:30pm 13.6 10.5 7.2 65 3.1 ENE 13 17 7 9 1024.0 1024.1 0.0
26/06:00pm 13.9 11.2 7.2 64 3.3 ENE 11 15 6 8 1024.1 1024.2 0.0
26/05:30pm 14.0 11.3 7.3 64 3.3 ENE 11 15 6 8 1024.0 1024.1 0.0
26/05:00pm 14.4 11.4 7.5 63 3.4 ENE 13 19 7 10 1024.2 1024.3 0.0
26/04:30pm 14.6 11.5 7.4 62 3.6 NE 13 20 7 11 1024.2 1024.3 0.0
26/04:00pm 14.8 11.7 7.4 61 3.7 NE 13 20 7 11 1024.4 1024.5 0.0
26/03:30pm 15.2 12.1 7.2 59 4.0 NNE 13 19 7 10 1024.7 1024.8 0.0
26/03:00pm 15.8 12.8 7.6 58 4.1 NE 13 19 7 10 1024.7 1024.8 0.0
26/02:30pm 15.3 11.8 7.3 59 4.0 NE 15 24 8 13 1025.2 1025.3 0.0
26/02:00pm 15.7 12.7 7.5 58 4.1 NE 13 19 7 10 1025.3 1025.4 0.0
26/01:30pm 14.8 12.5 7.6 62 3.6 NE 9 15 5 8 1025.7 1025.8 0.0
26/01:00pm 13.8 10.5 6.4 61 3.6 NE 13 20 7 11 1025.9 1026.0 0.0
26/12:30pm 13.5 11.1 6.8 64 3.3 NE 9 13 5 7 1026.4 1026.4 0.0
26/12:00pm 12.4 10.1 7.3 71 2.5 ENE 9 13 5 7 1026.7 1026.7 0.0
26/11:30am 12.2 9.9 7.5 73 2.3 ENE 9 13 5 7 1027.3 1027.3 0.0
26/11:00am 12.0 9.6 6.9 71 2.4 ENE 9 15 5 8 1028.0 1028.0 0.0
26/10:30am 11.6 8.7 6.5 71 2.4 ENE 11 15 6 8 1028.4 1028.4 0.0
26/10:00am 10.8 8.0 6.9 77 1.8 E 11 15 6 8 1028.4 1028.4 0.0
26/09:30am 9.3 7.3 7.1 86 1.0 E 7 11 4 6 1028.7 1028.8 0.0
26/09:00am 8.3 7.7 7.2 93 0.5 CALM 0 0 0 0 1029.2 1029.3 0.0
26/08:30am 7.5 6.7 6.6 94 0.4 CALM 0 6 0 3 1028.8 1028.9 0.0
26/08:00am 6.5 5.5 5.8 95 0.3 CALM 0 0 0 0 1028.7 1028.8 0.0
26/07:30am 6.4 5.4 5.5 94 0.4 CALM 0 4 0 2 1028.7 1028.8 0.0
26/07:00am 6.3 4.5 5.4 94 0.4 SE 4 6 2 3 1028.6 1028.7 0.0
26/06:30am 6.4 4.2 5.4 93 0.4 ESE 6 9 3 5 1028.3 1028.3 0.0
26/06:00am 6.4 3.7 5.7 95 0.3 ESE 9 11 5 6 1028.2 1028.2 0.0
26/05:30am 5.4 3.1 5.0 97 0.2 SE 6 7 3 4 1028.2 1028.2 0.0
26/05:00am 5.0 2.5 4.7 98 0.1 SE 7 7 4 4 1028.1 1028.1 0.0
26/04:30am 4.7 2.3 4.4 98 0.1 SSE 6 7 3 4 1028.2 1028.2 0.0
26/04:00am 4.3 1.8 4.0 98 0.1 SE 6 7 3 4 1028.1 1028.1 0.0
26/03:30am 4.2 1.7 3.9 98 0.1 SE 6 7 3 4 1028.3 1028.3 0.0
26/03:00am 4.0 1.5 3.7 98 0.1 SE 6 7 3 4 1028.4 1028.4 0.0
26/02:30am 3.5 0.7 3.1 97 0.2 SE 7 9 4 5 1028.7 1028.8 0.0
26/02:00am 3.7 2.3 3.3 97 0.2 CALM 0 0 0 0 1029.0 1029.1 0.0
26/01:30am 4.0 1.9 3.7 98 0.1 SSE 4 6 2 3 1029.2 1029.3 0.0
26/01:00am 3.8 2.4 3.4 97 0.2 CALM 0 0 0 0 1029.4 1029.5 0.0
26/12:30am 4.4 3.1 4.0 97 0.2 CALM 0 0 0 0 1029.5 1029.6 0.0
26/12:00am 4.5 3.1 3.8 95 0.3 CALM 0 0 0 0 1029.4 1029.5 0.0
 
Date/Time
EST
Temp
°C
App
Temp
°C
Dew
Point
Rel
Hum
%
Delta-T
°C
Wind Press
QNH
hPa
Press
MSL
hPa
Rain
since 9 am
mm
Dir
 
Spd
km/h
Gust
km/h
Spd
kts
Gust
kts
25/11:30pm 4.8 3.5 4.1 95 0.3 CALM 0 0 0 0 1029.4 1029.5 0.0
25/11:00pm 4.8 2.7 3.8 93 0.4 SE 4 7 2 4 1029.4 1029.5 0.0
25/10:30pm 5.0 2.6 4.1 94 0.4 SE 6 7 3 4 1029.5 1029.6 0.0
25/10:00pm 5.2 2.7 4.0 92 0.5 SSE 6 7 3 4 1029.6 1029.7 0.0
25/09:30pm 5.6 4.4 4.4 92 0.5 CALM 0 0 0 0 1029.7 1029.8 0.0
25/09:00pm 6.3 5.1 4.6 89 0.7 CALM 0 0 0 0 1029.8 1029.9 0.0
25/08:30pm 6.9 5.7 4.7 86 1.0 CALM 0 0 0 0 1030.0 1030.1 0.0
25/08:00pm 7.5 5.6 4.8 83 1.2 SSE 4 7 2 4 1029.9 1030.0 0.0
25/07:30pm 8.4 7.2 4.8 78 1.6 CALM 0 0 0 0 1029.7 1029.8 0.0
25/07:00pm 9.6 7.4 5.4 75 1.9 SE 6 7 3 4 1029.6 1029.7 0.0
25/06:30pm 11.2 9.1 5.7 69 2.6 ESE 6 7 3 4 1029.2 1029.3 0.0
25/06:00pm 12.1 9.9 5.5 64 3.1 E 6 7 3 4 1029.1 1029.2 0.0
25/05:30pm 13.1 10.8 5.5 60 3.6 E 7 11 4 6 1028.9 1029.0 0.0
25/05:00pm 14.6 12.1 4.9 52 4.5 ENE 7 11 4 6 1028.6 1028.7 0.0
25/04:30pm 15.6 12.7 4.6 48 5.2 NE 9 11 5 6 1028.5 1028.6 0.0
25/04:00pm 15.8 12.5 4.8 48 5.2 NE 11 13 6 7 1028.5 1028.6 0.0
25/03:30pm 15.9 13.0 4.9 48 5.2 ENE 9 13 5 7 1028.5 1028.6 0.0
25/03:00pm 15.7 12.9 5.0 49 5.1 E 9 13 5 7 1028.6 1028.7 0.0
25/02:30pm 16.0 13.3 5.6 50 5.0 E 9 13 5 7 1028.7 1028.8 0.0
25/02:00pm 15.7 13.1 5.9 52 4.7 ENE 9 13 5 7 1029.0 1029.1 0.0
25/01:30pm 15.1 12.3 5.3 52 4.7 NE 9 13 5 7 1029.3 1029.4 0.0
25/01:00pm 14.8 11.9 6.4 57 4.1 ENE 11 15 6 8 1029.6 1029.7 0.0
25/12:30pm 14.0 11.4 5.9 58 3.9 NE 9 13 5 7 1030.1 1030.2 0.0
25/12:00pm 13.6 10.9 5.7 59 3.7 NE 9 13 5 7 1030.6 1030.7 0.0
25/11:30am 13.1 10.4 5.5 60 3.6 NE 9 17 5 9 1031.1 1031.2 0.0
25/11:00am 12.2 9.6 6.0 66 2.9 ENE 9 11 5 6 1031.5 1031.6 0.0
25/10:30am 11.2 9.1 6.5 73 2.2 E 7 9 4 5 1031.8 1031.9 0.0
25/10:00am 10.4 8.4 6.4 76 1.9 ENE 6 11 3 6 1031.8 1031.9 0.0
25/09:30am 9.2 7.3 6.6 84 1.2 SE 6 7 3 4 1031.7 1031.8 0.0
25/09:00am 8.3 6.3 6.1 86 1.0 NE 6 9 3 5 1031.8 1031.9 0.0
25/08:30am 7.5 5.5 6.1 91 0.6 ESE 6 9 3 5 1031.7 1031.8 0.0
25/08:00am 6.7 4.5 5.3 91 0.6 SE 6 7 3 4 1031.5 1031.6 0.0
25/07:30am 7.0 5.1 5.0 87 0.9 E 4 7 2 4 1031.4 1031.5 0.0
25/07:00am 7.9 5.7 5.4 84 1.1 ENE 6 7 3 4 1031.1 1031.2 0.0
25/06:30am 7.6 5.2 5.4 86 1.0 E 7 9 4 5 1030.7 1030.8 0.0
25/06:00am 7.5 5.7 5.5 87 0.9 SE 4 6 2 3 1030.7 1030.8 0.0
25/05:30am 7.9 5.7 5.5 85 1.1 SE 6 6 3 3 1030.6 1030.7 0.0
25/05:00am 8.3 6.5 5.4 82 1.3 E 4 6 2 3 1030.5 1030.6 0.0
25/04:30am 9.0 6.3 5.7 80 1.5 NE 9 13 5 7 1030.4 1030.5 0.0
25/04:00am 8.4 7.4 5.5 82 1.3 CALM 0 4 0 2 1030.1 1030.2 0.0
25/03:30am 9.2 6.9 5.8 79 1.6 E 7 9 4 5 1030.0 1030.1 0.0
25/03:00am 9.6 6.9 5.8 77 1.7 NE 9 13 5 7 1030.2 1030.3 0.0
25/02:30am 9.6 7.3 5.8 77 1.8 NE 7 11 4 6 1030.0 1030.1 0.0
25/02:00am 9.4 6.4 5.9 79 1.6 ESE 11 17 6 9 1029.1 1029.2 0.0
25/01:30am 9.0 6.8 6.1 82 1.3 ENE 7 9 4 5 1030.0 1030.1 0.0
25/01:00am 8.5 6.5 6.1 85 1.1 E 6 7 3 4 1030.3 1030.4 0.0
25/12:30am 8.8 6.7 5.9 82 1.3 E 6 7 3 4 1030.8 1030.9 0.0
25/12:00am 9.4 7.4 6.1 80 1.5 NE 6 7 3 4 1030.6 1030.7 0.0
 
Date/Time
EST
Temp
°C
App
Temp
°C
Dew
Point
Rel
Hum
%
Delta-T
°C
Wind Press
QNH
hPa
Press
MSL
hPa
Rain
since 9 am
mm
Dir
 
Spd
km/h
Gust
km/h
Spd
kts
Gust
kts
24/11:30pm 9.6 7.4 6.1 79 1.6 ENE 7 9 4 5 1030.5 1030.6 0.0
24/11:00pm 10.1 7.1 6.1 76 1.8 ENE 11 15 6 8 1030.6 1030.7 0.0
24/10:30pm 10.4 7.8 6.2 75 2.0 ENE 9 13 5 7 1030.8 1030.9 0.0
24/10:00pm 10.3 7.8 6.5 77 1.8 ENE 9 11 5 6 1031.1 1031.2 0.0
24/09:30pm 7.9 6.1 5.5 85 1.1 NE 4 7 2 4 1031.2 1031.3 0.0
24/09:00pm 8.7 6.4 5.6 81 1.4 ENE 7 9 4 5 1031.0 1031.1 0.0
24/08:30pm 10.6 8.4 6.4 75 2.0 NE 7 11 4 6 1030.8 1030.9 0.0
24/08:00pm 10.2 8.2 6.9 80 1.6 NE 7 9 4 5 1030.7 1030.8 0.0
24/07:30pm 9.1 7.5 6.4 83 1.3 NE 4 7 2 4 1030.7 1030.8 0.0
24/07:00pm 9.4 8.5 5.9 79 1.6 CALM 0 0 0 0 1030.5 1030.6 0.0
24/06:30pm 9.9 9.0 6.1 77 1.8 CALM 0 0 0 0 1030.4 1030.5 0.0
24/06:00pm 11.0 8.9 6.0 71 2.3 NE 6 7 3 4 1030.1 1030.2 0.0
24/05:30pm 12.5 10.9 6.3 66 3.0 NNE 4 7 2 4 1029.8 1029.9 0.0
24/05:00pm 13.8 12.1 5.9 59 3.7 NNE 4 7 2 4 1029.8 1029.9 0.0
24/04:30pm 14.7 12.0 5.8 55 4.3 NNE 9 13 5 7 1029.6 1029.7 0.0
24/04:00pm 15.5 12.5 6.0 53 4.6 NNE 11 17 6 9 1029.6 1029.7 0.0
24/03:30pm 15.6 13.5 6.6 55 4.4 NNE 7 11 4 6 1029.6 1029.7 0.0
24/03:00pm 15.9 13.4 6.6 54 4.5 NE 9 15 5 8 1029.7 1029.8 0.0
24/02:30pm 15.1 12.6 6.7 57 4.1 NNE 9 15 5 8 1029.8 1029.9 0.0
24/02:00pm 15.1 13.0 6.7 57 4.1 NNE 7 13 4 7 1030.2 1030.3 0.0
24/01:30pm 14.3 11.8 6.6 60 3.7 NNE 9 15 5 8 1030.3 1030.4 0.0
24/01:00pm 13.8 10.6 6.9 63 3.3 NNE 13 19 7 10 1030.2 1030.3 0.0
24/12:30pm 13.2 9.6 6.8 65 3.1 NNE 15 20 8 11 1030.4 1030.5 0.0
24/12:00pm 13.4 10.2 7.0 65 3.1 NNE 13 19 7 10 1030.9 1031.0 0.0
24/11:30am 12.4 8.8 6.9 69 2.7 NNE 15 20 8 11 1031.4 1031.5 0.0
24/11:00am 11.4 7.2 5.9 69 2.6 NNE 17 24 9 13 1031.7 1031.8 0.0
24/10:30am 10.8 6.7 6.0 72 2.2 NE 17 22 9 12 1031.7 1031.8 0.0
24/10:00am 9.5 6.1 5.9 78 1.6 NE 13 22 7 12 1031.6 1031.7 0.0
24/09:30am 8.1 5.5 6.1 87 0.9 ENE 9 15 5 8 1031.7 1031.8 0.0
24/09:00am 6.6 5.0 6.3 98 0.1 ENE 4 7 2 4 1031.9 1032.0 0.0
24/08:30am 4.5 2.1 4.4 99 0.0 ENE 6 9 3 5 1031.5 1031.6 0.0
24/08:00am 1.9 0.2 1.8 99 0.0 CALM 0 0 0 0 1031.6 1031.7 0.0
24/07:30am 1.4 -0.4 1.3 99 0.0 CALM 0 0 0 0 1031.3 1031.4 0.0
24/07:00am 1.7 -1.2 1.6 99 0.0 SE 6 7 3 4 1030.9 1031.0 0.0
24/06:30am 2.1 0.0 2.0 99 0.0 ESE 2 6 1 3 1030.7 1030.8 0.0
24/06:00am 1.1 -1.9 1.0 99 0.0 SE 6 7 3 4 1030.4 1030.5 0.0
24/05:30am 1.6 -0.2 1.5 99 0.0 CALM 0 4 0 2 1030.1 1030.2 0.0
24/05:00am 1.9 -1.1 1.8 99 0.0 E 7 7 4 4 1029.9 1030.0 0.0
24/04:30am 1.9 -0.6 1.8 99 0.0 ESE 4 6 2 3 1029.8 1029.9 0.0
24/04:00am 1.7 -1.2 1.6 99 0.0 ESE 6 7 3 4 1029.6 1029.7 0.0
24/03:30am 1.6 -0.2 1.5 99 0.0 CALM 0 0 0 0 1029.7 1029.8 0.0
24/03:00am 1.7 0.0 1.6 99 0.0 CALM 0 0 0 0 1029.8 1029.9 0.0
24/02:30am 2.0 0.3 1.9 99 0.0 CALM 0 0 0 0 1029.9 1030.0 0.0
24/02:00am 1.9 -0.6 1.8 99 0.0 WSW 4 6 2 3 1029.8 1029.9 0.0
24/01:30am 2.2 -0.6 2.1 99 0.0 ENE 6 7 3 4 1029.7 1029.8 0.0
24/01:00am 2.8 0.5 2.7 99 0.0 WNW 4 6 2 3 1030.0 1030.1 0.0
24/12:30am 3.0 1.4 2.7 98 0.1 CALM 0 0 0 0 1030.1 1030.2 0.0
24/12:00am 3.2 1.7 2.9 98 0.1 CALM 0 0 0 0 1030.2 1030.3 0.0

Other Formats:

Comma delimited format used in spreadsheet applications
http://www.bom.gov.au/fwo/IDV60801/IDV60801.94839.axf

JavaScript Object Notation format (JSON) in row-major order
http://www.bom.gov.au/fwo/IDV60801/IDV60801.94839.json